SAEZ/EZE METAR and TAF weather

Enter ICAO airport designator
Station Type Date Time Source
SAEZ METAR 2019/07/17 19:00 UTC NOAA

SAEZ 171900Z 01011KT CAVOK 17/04 Q1019 NOSIG


Station Type Date Time Source
SAEZ Decoded METAR 2019/07/17 19:00 UTC NOAA

Ezeiza Aerodrome, Argentina (SAEZ) 34-49S 058-32W 20M
Jul 17, 2019 - 03:00 PM EDT / 2019.07.17 1900 UTC
Wind: from the N (010 degrees) at 13 MPH (11 KT):0
Visibility: greater than 7 mile(s):0
Temperature: 62 F (17 C)
Dew Point: 39 F (4 C)
Relative Humidity: 41%
Pressure (altimeter): 30.09 in. Hg (1019 hPa)
ob: SAEZ 171900Z 01011KT CAVOK 17/04 Q1019 NOSIG
cycle: 19

Station Type Date Time Source
SAEZ TAF 2019/07/17 18:25 UTC NOAA

TAF SAEZ 171700Z 1718/1818 02015KT CAVOK TX17/1718Z TN08/1810Z
BECMG 1723/1801 02010KT
BECMG 1805/1808 02005KT 9999 SCT035
BECMG 1812/1815 18005KT 9999 BKN035

Example: see airport list